sensor_id;sensor_type;location;lat;lon;timestamp;P1;durP1;ratioP1;P2;durP2;ratioP2
39924;SDS011;25592;49.986;11.618;2023-01-10T00:02:28;3.95;;;1.85;;
39924;SDS011;25592;49.986;11.618;2023-01-10T00:05:13;3.60;;;1.65;;
39924;SDS011;25592;49.986;11.618;2023-01-10T00:07:59;3.17;;;1.40;;
39924;SDS011;25592;49.986;11.618;2023-01-10T00:10:48;3.97;;;2.05;;
39924;SDS011;25592;49.986;11.618;2023-01-10T00:13:33;4.13;;;1.70;;
39924;SDS011;25592;49.986;11.618;2023-01-10T00:16:18;4.63;;;1.40;;
39924;SDS011;25592;49.986;11.618;2023-01-10T00:19:05;3.33;;;1.63;;
39924;SDS011;25592;49.986;11.618;2023-01-10T00:21:50;3.95;;;1.50;;
39924;SDS011;25592;49.986;11.618;2023-01-10T00:24:36;3.92;;;1.45;;
39924;SDS011;25592;49.986;11.618;2023-01-10T00:27:22;2.95;;;1.70;;
39924;SDS011;25592;49.986;11.618;2023-01-10T00:30:08;4.00;;;2.10;;
39924;SDS011;25592;49.986;11.618;2023-01-10T00:32:57;4.22;;;2.15;;
39924;SDS011;25592;49.986;11.618;2023-01-10T00:35:43;4.45;;;1.95;;
39924;SDS011;25592;49.986;11.618;2023-01-10T00:38:28;4.35;;;2.45;;
39924;SDS011;25592;49.986;11.618;2023-01-10T00:41:17;7.78;;;3.17;;
39924;SDS011;25592;49.986;11.618;2023-01-10T00:44:21;5.70;;;2.30;;
39924;SDS011;25592;49.986;11.618;2023-01-10T00:47:06;4.30;;;2.45;;
39924;SDS011;25592;49.986;11.618;2023-01-10T00:49:51;3.95;;;2.40;;
39924;SDS011;25592;49.986;11.618;2023-01-10T00:52:37;5.25;;;2.45;;
39924;SDS011;25592;49.986;11.618;2023-01-10T00:55:22;6.47;;;2.70;;
39924;SDS011;25592;49.986;11.618;2023-01-10T00:58:07;4.03;;;2.28;;
39924;SDS011;25592;49.986;11.618;2023-01-10T01:00:55;5.28;;;2.40;;
39924;SDS011;25592;49.986;11.618;2023-01-10T01:03:40;4.22;;;2.30;;
39924;SDS011;25592;49.986;11.618;2023-01-10T01:06:26;4.72;;;2.72;;
39924;SDS011;25592;49.986;11.618;2023-01-10T01:09:11;4.40;;;2.58;;
39924;SDS011;25592;49.986;11.618;2023-01-10T01:11:57;6.90;;;3.03;;
39924;SDS011;25592;49.986;11.618;2023-01-10T01:14:42;5.50;;;2.28;;
39924;SDS011;25592;49.986;11.618;2023-01-10T01:17:28;5.57;;;2.60;;
39924;SDS011;25592;49.986;11.618;2023-01-10T01:20:13;6.15;;;2.42;;
39924;SDS011;25592;49.986;11.618;2023-01-10T01:22:59;4.03;;;1.90;;
39924;SDS011;25592;49.986;11.618;2023-01-10T01:25:45;4.30;;;2.50;;
39924;SDS011;25592;49.986;11.618;2023-01-10T01:28:37;5.95;;;2.60;;
39924;SDS011;25592;49.986;11.618;2023-01-10T01:31:22;9.20;;;3.10;;
39924;SDS011;25592;49.986;11.618;2023-01-10T01:34:08;5.03;;;2.60;;
39924;SDS011;25592;49.986;11.618;2023-01-10T01:36:53;5.03;;;3.25;;
39924;SDS011;25592;49.986;11.618;2023-01-10T01:39:40;4.30;;;2.47;;
39924;SDS011;25592;49.986;11.618;2023-01-10T01:42:27;4.72;;;2.42;;
39924;SDS011;25592;49.986;11.618;2023-01-10T01:50:47;6.38;;;2.90;;
39924;SDS011;25592;49.986;11.618;2023-01-10T01:53:53;8.02;;;2.78;;
39924;SDS011;25592;49.986;11.618;2023-01-10T01:56:50;5.13;;;2.25;;
39924;SDS011;25592;49.986;11.618;2023-01-10T01:59:43;7.18;;;2.47;;
39924;SDS011;25592;49.986;11.618;2023-01-10T02:02:31;5.38;;;2.33;;
39924;SDS011;25592;49.986;11.618;2023-01-10T02:05:32;7.57;;;3.47;;
39924;SDS011;25592;49.986;11.618;2023-01-10T02:08:19;5.20;;;2.47;;
39924;SDS011;25592;49.986;11.618;2023-01-10T02:11:07;4.85;;;2.03;;
39924;SDS011;25592;49.986;11.618;2023-01-10T02:13:54;4.75;;;2.15;;
39924;SDS011;25592;49.986;11.618;2023-01-10T02:16:41;5.15;;;1.80;;
39924;SDS011;25592;49.986;11.618;2023-01-10T02:19:42;3.78;;;2.15;;
39924;SDS011;25592;49.986;11.618;2023-01-10T02:22:53;6.78;;;2.30;;
39924;SDS011;25592;49.986;11.618;2023-01-10T02:28:55;7.53;;;2.33;;
39924;SDS011;25592;49.986;11.618;2023-01-10T02:32:13;4.15;;;2.00;;
39924;SDS011;25592;49.986;11.618;2023-01-10T02:39:10;5.00;;;1.70;;
39924;SDS011;25592;49.986;11.618;2023-01-10T02:42:11;6.00;;;1.80;;
39924;SDS011;25592;49.986;11.618;2023-01-10T02:45:16;5.20;;;2.13;;
39924;SDS011;25592;49.986;11.618;2023-01-10T02:48:08;5.45;;;1.73;;
39924;SDS011;25592;49.986;11.618;2023-01-10T02:50:59;4.05;;;1.80;;
39924;SDS011;25592;49.986;11.618;2023-01-10T03:00:04;3.25;;;1.52;;
39924;SDS011;25592;49.986;11.618;2023-01-10T03:03:12;4.45;;;1.77;;
39924;SDS011;25592;49.986;11.618;2023-01-10T03:09:07;7.97;;;2.45;;
39924;SDS011;25592;49.986;11.618;2023-01-10T03:12:03;2.83;;;1.40;;
39924;SDS011;25592;49.986;11.618;2023-01-10T03:14:56;6.05;;;1.90;;
39924;SDS011;25592;49.986;11.618;2023-01-10T03:17:45;4.55;;;1.73;;
39924;SDS011;25592;49.986;11.618;2023-01-10T03:20:34;4.18;;;1.67;;
39924;SDS011;25592;49.986;11.618;2023-01-10T03:23:20;3.67;;;1.85;;
39924;SDS011;25592;49.986;11.618;2023-01-10T03:26:08;5.18;;;2.00;;
39924;SDS011;25592;49.986;11.618;2023-01-10T03:28:56;5.57;;;2.22;;
39924;SDS011;25592;49.986;11.618;2023-01-10T03:31:47;4.32;;;1.83;;
39924;SDS011;25592;49.986;11.618;2023-01-10T03:34:37;4.03;;;2.13;;
39924;SDS011;25592;49.986;11.618;2023-01-10T03:37:27;4.18;;;2.05;;
39924;SDS011;25592;49.986;11.618;2023-01-10T03:43:18;5.40;;;2.08;;
39924;SDS011;25592;49.986;11.618;2023-01-10T03:49:44;3.85;;;2.20;;
39924;SDS011;25592;49.986;11.618;2023-01-10T03:52:33;3.10;;;1.67;;
39924;SDS011;25592;49.986;11.618;2023-01-10T03:55:21;5.35;;;2.30;;
39924;SDS011;25592;49.986;11.618;2023-01-10T03:58:09;8.23;;;3.10;;
39924;SDS011;25592;49.986;11.618;2023-01-10T04:00:55;3.90;;;1.90;;
39924;SDS011;25592;49.986;11.618;2023-01-10T04:03:40;5.10;;;2.28;;
39924;SDS011;25592;49.986;11.618;2023-01-10T04:06:26;4.40;;;1.92;;
39924;SDS011;25592;49.986;11.618;2023-01-10T04:09:11;7.05;;;2.38;;
39924;SDS011;25592;49.986;11.618;2023-01-10T04:11:57;3.55;;;1.88;;
39924;SDS011;25592;49.986;11.618;2023-01-10T04:14:42;4.18;;;2.03;;
39924;SDS011;25592;49.986;11.618;2023-01-10T04:17:31;5.68;;;2.10;;
39924;SDS011;25592;49.986;11.618;2023-01-10T04:20:16;5.88;;;2.22;;
39924;SDS011;25592;49.986;11.618;2023-01-10T04:23:02;7.05;;;2.35;;
39924;SDS011;25592;49.986;11.618;2023-01-10T04:25:47;5.68;;;2.13;;
39924;SDS011;25592;49.986;11.618;2023-01-10T04:28:32;6.10;;;2.35;;
39924;SDS011;25592;49.986;11.618;2023-01-10T04:31:18;4.93;;;2.45;;
39924;SDS011;25592;49.986;11.618;2023-01-10T04:34:03;5.28;;;2.22;;
39924;SDS011;25592;49.986;11.618;2023-01-10T04:36:48;6.50;;;2.13;;
39924;SDS011;25592;49.986;11.618;2023-01-10T04:39:34;3.97;;;2.10;;
39924;SDS011;25592;49.986;11.618;2023-01-10T04:42:19;6.07;;;2.22;;
39924;SDS011;25592;49.986;11.618;2023-01-10T04:45:05;8.57;;;2.72;;
39924;SDS011;25592;49.986;11.618;2023-01-10T04:47:51;5.45;;;2.25;;
39924;SDS011;25592;49.986;11.618;2023-01-10T04:50:39;4.80;;;2.80;;
39924;SDS011;25592;49.986;11.618;2023-01-10T04:53:25;3.42;;;2.22;;
39924;SDS011;25592;49.986;11.618;2023-01-10T04:56:14;5.18;;;2.47;;
39924;SDS011;25592;49.986;11.618;2023-01-10T04:59:01;8.40;;;2.40;;
39924;SDS011;25592;49.986;11.618;2023-01-10T05:01:47;4.88;;;2.13;;
39924;SDS011;25592;49.986;11.618;2023-01-10T05:04:32;4.03;;;2.35;;
39924;SDS011;25592;49.986;11.618;2023-01-10T05:07:18;6.03;;;2.40;;
39924;SDS011;25592;49.986;11.618;2023-01-10T05:10:04;4.65;;;1.92;;
39924;SDS011;25592;49.986;11.618;2023-01-10T05:12:50;4.18;;;2.45;;
39924;SDS011;25592;49.986;11.618;2023-01-10T05:15:35;6.72;;;2.47;;
39924;SDS011;25592;49.986;11.618;2023-01-10T05:18:21;4.43;;;2.10;;
39924;SDS011;25592;49.986;11.618;2023-01-10T05:21:07;5.35;;;2.15;;
39924;SDS011;25592;49.986;11.618;2023-01-10T05:23:53;5.90;;;2.10;;
39924;SDS011;25592;49.986;11.618;2023-01-10T05:26:39;4.57;;;1.90;;
39924;SDS011;25592;49.986;11.618;2023-01-10T05:29:24;4.28;;;2.20;;
39924;SDS011;25592;49.986;11.618;2023-01-10T05:32:10;9.75;;;2.72;;
39924;SDS011;25592;49.986;11.618;2023-01-10T05:34:55;5.40;;;2.30;;
39924;SDS011;25592;49.986;11.618;2023-01-10T05:37:41;6.95;;;2.05;;
39924;SDS011;25592;49.986;11.618;2023-01-10T05:40:26;5.97;;;2.63;;
39924;SDS011;25592;49.986;11.618;2023-01-10T05:43:11;4.25;;;2.30;;
39924;SDS011;25592;49.986;11.618;2023-01-10T05:45:57;3.83;;;2.25;;
39924;SDS011;25592;49.986;11.618;2023-01-10T05:48:42;8.32;;;3.03;;
39924;SDS011;25592;49.986;11.618;2023-01-10T05:51:27;5.05;;;2.05;;
39924;SDS011;25592;49.986;11.618;2023-01-10T05:54:13;3.63;;;1.90;;
39924;SDS011;25592;49.986;11.618;2023-01-10T05:56:58;3.00;;;1.90;;
39924;SDS011;25592;49.986;11.618;2023-01-10T05:59:44;6.20;;;2.10;;
39924;SDS011;25592;49.986;11.618;2023-01-10T06:02:29;7.65;;;3.20;;
39924;SDS011;25592;49.986;11.618;2023-01-10T06:05:15;3.97;;;2.28;;
39924;SDS011;25592;49.986;11.618;2023-01-10T06:08:00;6.88;;;2.60;;
39924;SDS011;25592;49.986;11.618;2023-01-10T06:10:45;7.47;;;2.50;;
39924;SDS011;25592;49.986;11.618;2023-01-10T06:13:31;4.35;;;1.88;;
39924;SDS011;25592;49.986;11.618;2023-01-10T06:16:16;6.13;;;2.72;;
39924;SDS011;25592;49.986;11.618;2023-01-10T06:19:02;4.45;;;2.03;;
39924;SDS011;25592;49.986;11.618;2023-01-10T06:21:47;4.63;;;2.45;;
39924;SDS011;25592;49.986;11.618;2023-01-10T06:24:33;6.57;;;2.00;;
39924;SDS011;25592;49.986;11.618;2023-01-10T06:27:18;4.45;;;2.40;;
39924;SDS011;25592;49.986;11.618;2023-01-10T06:30:03;4.50;;;2.67;;
39924;SDS011;25592;49.986;11.618;2023-01-10T06:32:49;4.97;;;3.08;;
39924;SDS011;25592;49.986;11.618;2023-01-10T06:35:35;5.60;;;2.13;;
39924;SDS011;25592;49.986;11.618;2023-01-10T06:38:20;6.75;;;2.20;;
39924;SDS011;25592;49.986;11.618;2023-01-10T06:41:06;7.10;;;2.67;;
39924;SDS011;25592;49.986;11.618;2023-01-10T06:43:57;6.57;;;2.33;;
39924;SDS011;25592;49.986;11.618;2023-01-10T06:46:42;7.40;;;2.60;;
39924;SDS011;25592;49.986;11.618;2023-01-10T06:49:27;5.50;;;2.90;;
39924;SDS011;25592;49.986;11.618;2023-01-10T06:52:13;6.15;;;3.08;;
39924;SDS011;25592;49.986;11.618;2023-01-10T06:54:59;4.55;;;2.78;;
39924;SDS011;25592;49.986;11.618;2023-01-10T06:57:44;8.50;;;3.72;;
39924;SDS011;25592;49.986;11.618;2023-01-10T07:00:30;4.82;;;3.10;;
39924;SDS011;25592;49.986;11.618;2023-01-10T07:03:16;7.43;;;2.30;;
39924;SDS011;25592;49.986;11.618;2023-01-10T07:06:01;5.60;;;2.70;;
39924;SDS011;25592;49.986;11.618;2023-01-10T07:08:47;8.65;;;2.60;;
39924;SDS011;25592;49.986;11.618;2023-01-10T07:11:33;6.20;;;2.42;;
39924;SDS011;25592;49.986;11.618;2023-01-10T07:14:18;6.50;;;3.22;;
39924;SDS011;25592;49.986;11.618;2023-01-10T07:17:04;9.57;;;2.97;;
39924;SDS011;25592;49.986;11.618;2023-01-10T07:19:49;5.40;;;2.75;;
39924;SDS011;25592;49.986;11.618;2023-01-10T07:22:35;6.63;;;3.13;;
39924;SDS011;25592;49.986;11.618;2023-01-10T07:25:20;4.95;;;2.95;;
39924;SDS011;25592;49.986;11.618;2023-01-10T07:28:06;8.07;;;2.65;;
39924;SDS011;25592;49.986;11.618;2023-01-10T07:30:52;4.70;;;2.42;;
39924;SDS011;25592;49.986;11.618;2023-01-10T07:33:37;4.50;;;2.42;;
39924;SDS011;25592;49.986;11.618;2023-01-10T07:36:22;4.00;;;2.63;;
39924;SDS011;25592;49.986;11.618;2023-01-10T07:39:07;5.40;;;2.78;;
39924;SDS011;25592;49.986;11.618;2023-01-10T07:41:53;6.13;;;3.10;;
39924;SDS011;25592;49.986;11.618;2023-01-10T07:44:38;4.30;;;2.55;;
39924;SDS011;25592;49.986;11.618;2023-01-10T07:47:24;7.80;;;2.67;;
39924;SDS011;25592;49.986;11.618;2023-01-10T07:50:09;7.93;;;2.75;;
39924;SDS011;25592;49.986;11.618;2023-01-10T07:52:55;6.22;;;2.53;;
39924;SDS011;25592;49.986;11.618;2023-01-10T07:55:40;7.25;;;2.40;;
39924;SDS011;25592;49.986;11.618;2023-01-10T07:58:27;6.28;;;2.88;;
39924;SDS011;25592;49.986;11.618;2023-01-10T08:01:12;8.27;;;3.38;;
39924;SDS011;25592;49.986;11.618;2023-01-10T08:03:57;6.10;;;2.67;;
39924;SDS011;25592;49.986;11.618;2023-01-10T08:06:43;8.43;;;3.03;;
39924;SDS011;25592;49.986;11.618;2023-01-10T08:09:28;8.13;;;3.08;;
39924;SDS011;25592;49.986;11.618;2023-01-10T08:12:14;7.15;;;2.80;;
39924;SDS011;25592;49.986;11.618;2023-01-10T08:14:59;5.93;;;2.90;;
39924;SDS011;25592;49.986;11.618;2023-01-10T08:17:44;5.18;;;2.80;;
39924;SDS011;25592;49.986;11.618;2023-01-10T08:20:30;9.35;;;2.88;;
39924;SDS011;25592;49.986;11.618;2023-01-10T08:23:16;5.90;;;2.72;;
39924;SDS011;25592;49.986;11.618;2023-01-10T08:26:02;5.63;;;2.80;;
39924;SDS011;25592;49.986;11.618;2023-01-10T08:28:47;5.97;;;3.28;;
39924;SDS011;25592;49.986;11.618;2023-01-10T08:31:33;12.70;;;3.78;;
39924;SDS011;25592;49.986;11.618;2023-01-10T08:34:18;6.50;;;3.30;;
39924;SDS011;25592;49.986;11.618;2023-01-10T08:37:04;6.70;;;2.70;;
39924;SDS011;25592;49.986;11.618;2023-01-10T08:39:49;10.63;;;3.08;;
39924;SDS011;25592;49.986;11.618;2023-01-10T08:42:34;5.75;;;2.60;;
39924;SDS011;25592;49.986;11.618;2023-01-10T08:45:20;8.60;;;3.25;;
39924;SDS011;25592;49.986;11.618;2023-01-10T08:48:05;7.47;;;3.30;;
39924;SDS011;25592;49.986;11.618;2023-01-10T08:50:53;10.07;;;3.33;;
39924;SDS011;25592;49.986;11.618;2023-01-10T08:53:38;4.97;;;2.67;;
39924;SDS011;25592;49.986;11.618;2023-01-10T08:56:23;4.80;;;3.00;;
39924;SDS011;25592;49.986;11.618;2023-01-10T08:59:09;7.15;;;3.35;;
39924;SDS011;25592;49.986;11.618;2023-01-10T09:01:54;6.50;;;2.97;;
39924;SDS011;25592;49.986;11.618;2023-01-10T09:04:42;5.85;;;3.42;;
39924;SDS011;25592;49.986;11.618;2023-01-10T09:07:27;6.75;;;3.20;;
39924;SDS011;25592;49.986;11.618;2023-01-10T09:10:13;8.73;;;2.65;;
39924;SDS011;25592;49.986;11.618;2023-01-10T09:12:58;8.30;;;2.92;;
39924;SDS011;25592;49.986;11.618;2023-01-10T09:15:45;6.53;;;2.92;;
39924;SDS011;25592;49.986;11.618;2023-01-10T09:18:31;6.57;;;2.72;;
39924;SDS011;25592;49.986;11.618;2023-01-10T09:21:17;6.30;;;3.30;;
39924;SDS011;25592;49.986;11.618;2023-01-10T09:24:04;7.20;;;3.20;;
39924;SDS011;25592;49.986;11.618;2023-01-10T09:26:51;6.82;;;3.33;;
39924;SDS011;25592;49.986;11.618;2023-01-10T09:29:36;9.45;;;4.70;;
39924;SDS011;25592;49.986;11.618;2023-01-10T09:32:21;6.38;;;2.92;;
39924;SDS011;25592;49.986;11.618;2023-01-10T09:35:07;7.68;;;2.80;;
39924;SDS011;25592;49.986;11.618;2023-01-10T09:37:53;5.38;;;2.78;;
39924;SDS011;25592;49.986;11.618;2023-01-10T09:40:48;6.47;;;2.58;;
39924;SDS011;25592;49.986;11.618;2023-01-10T09:46:45;6.45;;;2.60;;
39924;SDS011;25592;49.986;11.618;2023-01-10T09:52:43;6.75;;;2.40;;
39924;SDS011;25592;49.986;11.618;2023-01-10T09:55:32;7.78;;;2.50;;
39924;SDS011;25592;49.986;11.618;2023-01-10T09:58:19;6.85;;;2.05;;
39924;SDS011;25592;49.986;11.618;2023-01-10T10:01:15;10.23;;;3.28;;
39924;SDS011;25592;49.986;11.618;2023-01-10T10:04:22;15.10;;;3.42;;
39924;SDS011;25592;49.986;11.618;2023-01-10T10:07:17;6.95;;;3.15;;
39924;SDS011;25592;49.986;11.618;2023-01-10T10:10:06;10.77;;;4.03;;
39924;SDS011;25592;49.986;11.618;2023-01-10T10:28:59;13.20;;;2.90;;
39924;SDS011;25592;49.986;11.618;2023-01-10T10:38:17;6.20;;;2.08;;
39924;SDS011;25592;49.986;11.618;2023-01-10T10:41:13;6.63;;;2.03;;
39924;SDS011;25592;49.986;11.618;2023-01-10T10:44:05;5.18;;;1.90;;
39924;SDS011;25592;49.986;11.618;2023-01-10T10:47:12;8.60;;;2.25;;
39924;SDS011;25592;49.986;11.618;2023-01-10T10:50:05;4.10;;;1.80;;
39924;SDS011;25592;49.986;11.618;2023-01-10T10:52:59;8.75;;;2.95;;
39924;SDS011;25592;49.986;11.618;2023-01-10T10:55:46;7.13;;;2.95;;
39924;SDS011;25592;49.986;11.618;2023-01-10T10:58:32;9.48;;;3.92;;
39924;SDS011;25592;49.986;11.618;2023-01-10T11:01:18;5.80;;;2.55;;
39924;SDS011;25592;49.986;11.618;2023-01-10T11:04:05;7.03;;;2.25;;
39924;SDS011;25592;49.986;11.618;2023-01-10T11:06:55;5.53;;;2.50;;
39924;SDS011;25592;49.986;11.618;2023-01-10T11:09:40;8.85;;;2.38;;
39924;SDS011;25592;49.986;11.618;2023-01-10T11:12:38;7.80;;;2.30;;
39924;SDS011;25592;49.986;11.618;2023-01-10T11:18:23;9.65;;;3.53;;
39924;SDS011;25592;49.986;11.618;2023-01-10T11:21:11;6.00;;;1.45;;
39924;SDS011;25592;49.986;11.618;2023-01-10T11:23:57;8.48;;;2.20;;
39924;SDS011;25592;49.986;11.618;2023-01-10T11:26:43;6.82;;;1.92;;
39924;SDS011;25592;49.986;11.618;2023-01-10T11:29:41;7.25;;;2.60;;
39924;SDS011;25592;49.986;11.618;2023-01-10T11:32:34;8.82;;;2.28;;
39924;SDS011;25592;49.986;11.618;2023-01-10T11:38:20;11.48;;;3.78;;
39924;SDS011;25592;49.986;11.618;2023-01-10T11:41:26;7.35;;;2.20;;
39924;SDS011;25592;49.986;11.618;2023-01-10T11:44:22;6.15;;;2.00;;
39924;SDS011;25592;49.986;11.618;2023-01-10T11:47:09;9.65;;;2.47;;
39924;SDS011;25592;49.986;11.618;2023-01-10T11:49:58;6.13;;;2.03;;
39924;SDS011;25592;49.986;11.618;2023-01-10T11:52:43;8.27;;;2.05;;
39924;SDS011;25592;49.986;11.618;2023-01-10T11:55:30;6.22;;;2.60;;
39924;SDS011;25592;49.986;11.618;2023-01-10T11:58:18;8.60;;;2.10;;
39924;SDS011;25592;49.986;11.618;2023-01-10T12:01:03;9.65;;;3.35;;
39924;SDS011;25592;49.986;11.618;2023-01-10T12:03:49;7.13;;;2.33;;
39924;SDS011;25592;49.986;11.618;2023-01-10T12:06:34;7.97;;;2.20;;
39924;SDS011;25592;49.986;11.618;2023-01-10T12:12:28;6.40;;;2.40;;
39924;SDS011;25592;49.986;11.618;2023-01-10T12:15:21;8.57;;;2.03;;
39924;SDS011;25592;49.986;11.618;2023-01-10T12:18:13;7.57;;;2.58;;
39924;SDS011;25592;49.986;11.618;2023-01-10T12:21:01;9.38;;;3.63;;
39924;SDS011;25592;49.986;11.618;2023-01-10T12:23:46;9.65;;;3.40;;
39924;SDS011;25592;49.986;11.618;2023-01-10T12:26:34;10.43;;;3.03;;
39924;SDS011;25592;49.986;11.618;2023-01-10T12:29:20;8.70;;;2.95;;
39924;SDS011;25592;49.986;11.618;2023-01-10T12:32:14;16.90;;;3.97;;
39924;SDS011;25592;49.986;11.618;2023-01-10T12:35:06;9.35;;;2.75;;
39924;SDS011;25592;49.986;11.618;2023-01-10T12:41:03;8.73;;;2.22;;
39924;SDS011;25592;49.986;11.618;2023-01-10T12:43:52;9.43;;;1.90;;
39924;SDS011;25592;49.986;11.618;2023-01-10T12:47:04;4.13;;;2.22;;
39924;SDS011;25592;49.986;11.618;2023-01-10T12:50:05;7.43;;;2.22;;
39924;SDS011;25592;49.986;11.618;2023-01-10T12:52:58;8.50;;;2.50;;
39924;SDS011;25592;49.986;11.618;2023-01-10T12:55:47;10.93;;;2.08;;
39924;SDS011;25592;49.986;11.618;2023-01-10T13:01:28;9.52;;;3.20;;
39924;SDS011;25592;49.986;11.618;2023-01-10T13:04:24;8.60;;;2.03;;
39924;SDS011;25592;49.986;11.618;2023-01-10T13:07:10;7.15;;;2.05;;
39924;SDS011;25592;49.986;11.618;2023-01-10T13:09:56;14.45;;;2.78;;
39924;SDS011;25592;49.986;11.618;2023-01-10T13:12:46;8.25;;;2.95;;
39924;SDS011;25592;49.986;11.618;2023-01-10T13:15:40;7.05;;;2.05;;
39924;SDS011;25592;49.986;11.618;2023-01-10T13:19:01;7.80;;;1.95;;
39924;SDS011;25592;49.986;11.618;2023-01-10T13:21:46;10.80;;;2.15;;
39924;SDS011;25592;49.986;11.618;2023-01-10T13:24:31;4.38;;;1.90;;
39924;SDS011;25592;49.986;11.618;2023-01-10T13:27:18;5.53;;;1.58;;
39924;SDS011;25592;49.986;11.618;2023-01-10T13:30:04;6.05;;;1.42;;
39924;SDS011;25592;49.986;11.618;2023-01-10T13:33:07;7.20;;;1.58;;
39924;SDS011;25592;49.986;11.618;2023-01-10T13:36:09;4.53;;;1.70;;
39924;SDS011;25592;49.986;11.618;2023-01-10T13:39:01;3.08;;;1.38;;
39924;SDS011;25592;49.986;11.618;2023-01-10T13:50:47;8.35;;;2.13;;
39924;SDS011;25592;49.986;11.618;2023-01-10T13:56:38;5.35;;;1.75;;
39924;SDS011;25592;49.986;11.618;2023-01-10T14:02:29;10.35;;;1.65;;
39924;SDS011;25592;49.986;11.618;2023-01-10T14:05:16;5.20;;;1.90;;
39924;SDS011;25592;49.986;11.618;2023-01-10T14:08:02;11.00;;;2.67;;
39924;SDS011;25592;49.986;11.618;2023-01-10T14:11:09;9.55;;;1.85;;
39924;SDS011;25592;49.986;11.618;2023-01-10T14:13:57;12.38;;;2.10;;
39924;SDS011;25592;49.986;11.618;2023-01-10T14:16:46;7.57;;;2.35;;
39924;SDS011;25592;49.986;11.618;2023-01-10T14:19:34;7.28;;;2.10;;
39924;SDS011;25592;49.986;11.618;2023-01-10T14:22:22;9.23;;;2.33;;
39924;SDS011;25592;49.986;11.618;2023-01-10T14:25:19;9.90;;;2.60;;
39924;SDS011;25592;49.986;11.618;2023-01-10T14:28:13;9.27;;;2.40;;
39924;SDS011;25592;49.986;11.618;2023-01-10T14:31:08;9.70;;;2.47;;
39924;SDS011;25592;49.986;11.618;2023-01-10T14:34:04;26.85;;;4.82;;
39924;SDS011;25592;49.986;11.618;2023-01-10T14:36:59;11.80;;;3.20;;
39924;SDS011;25592;49.986;11.618;2023-01-10T14:39:47;9.48;;;2.33;;
39924;SDS011;25592;49.986;11.618;2023-01-10T14:42:36;9.00;;;2.60;;
39924;SDS011;25592;49.986;11.618;2023-01-10T14:45:29;9.05;;;4.55;;
39924;SDS011;25592;49.986;11.618;2023-01-10T14:48:24;13.43;;;2.83;;
39924;SDS011;25592;49.986;11.618;2023-01-10T14:54:11;12.73;;;3.17;;
39924;SDS011;25592;49.986;11.618;2023-01-10T14:56:58;8.40;;;3.45;;
39924;SDS011;25592;49.986;11.618;2023-01-10T14:59:43;12.38;;;2.60;;
39924;SDS011;25592;49.986;11.618;2023-01-10T15:02:28;7.22;;;2.72;;
39924;SDS011;25592;49.986;11.618;2023-01-10T15:05:15;8.52;;;3.92;;
39924;SDS011;25592;49.986;11.618;2023-01-10T15:08:13;12.43;;;4.03;;
39924;SDS011;25592;49.986;11.618;2023-01-10T15:11:00;12.50;;;3.63;;
39924;SDS011;25592;49.986;11.618;2023-01-10T15:13:51;8.73;;;2.92;;
39924;SDS011;25592;49.986;11.618;2023-01-10T15:16:43;13.90;;;5.80;;
39924;SDS011;25592;49.986;11.618;2023-01-10T15:19:32;8.40;;;2.85;;
39924;SDS011;25592;49.986;11.618;2023-01-10T15:22:30;7.35;;;2.65;;
39924;SDS011;25592;49.986;11.618;2023-01-10T15:28:16;15.98;;;3.72;;
39924;SDS011;25592;49.986;11.618;2023-01-10T15:31:03;8.93;;;2.85;;
39924;SDS011;25592;49.986;11.618;2023-01-10T15:33:50;7.47;;;3.25;;
39924;SDS011;25592;49.986;11.618;2023-01-10T15:36:41;7.85;;;2.35;;
39924;SDS011;25592;49.986;11.618;2023-01-10T15:39:36;10.40;;;3.22;;
39924;SDS011;25592;49.986;11.618;2023-01-10T15:42:24;10.02;;;2.50;;
39924;SDS011;25592;49.986;11.618;2023-01-10T15:45:28;7.82;;;2.75;;
39924;SDS011;25592;49.986;11.618;2023-01-10T15:48:24;10.15;;;3.25;;
39924;SDS011;25592;49.986;11.618;2023-01-10T15:51:32;10.80;;;3.38;;
39924;SDS011;25592;49.986;11.618;2023-01-10T15:57:07;22.30;;;6.82;;
39924;SDS011;25592;49.986;11.618;2023-01-10T16:00:16;19.58;;;6.43;;
39924;SDS011;25592;49.986;11.618;2023-01-10T16:03:11;13.93;;;3.90;;
39924;SDS011;25592;49.986;11.618;2023-01-10T16:06:23;14.40;;;5.70;;
39924;SDS011;25592;49.986;11.618;2023-01-10T16:09:18;12.13;;;5.43;;
39924;SDS011;25592;49.986;11.618;2023-01-10T16:12:06;10.63;;;5.45;;
39924;SDS011;25592;49.986;11.618;2023-01-10T16:15:38;15.75;;;5.93;;
39924;SDS011;25592;49.986;11.618;2023-01-10T16:18:25;15.70;;;7.30;;
39924;SDS011;25592;49.986;11.618;2023-01-10T16:21:11;16.83;;;6.43;;
39924;SDS011;25592;49.986;11.618;2023-01-10T16:23:57;20.33;;;8.13;;
39924;SDS011;25592;49.986;11.618;2023-01-10T16:26:43;11.35;;;4.40;;
39924;SDS011;25592;49.986;11.618;2023-01-10T16:29:28;13.25;;;4.78;;
39924;SDS011;25592;49.986;11.618;2023-01-10T16:32:14;15.20;;;3.60;;
39924;SDS011;25592;49.986;11.618;2023-01-10T16:34:59;18.05;;;6.43;;
39924;SDS011;25592;49.986;11.618;2023-01-10T16:37:46;14.70;;;4.78;;
39924;SDS011;25592;49.986;11.618;2023-01-10T16:40:32;14.65;;;6.30;;
39924;SDS011;25592;49.986;11.618;2023-01-10T16:43:20;17.48;;;4.15;;
39924;SDS011;25592;49.986;11.618;2023-01-10T16:46:05;21.17;;;5.38;;
39924;SDS011;25592;49.986;11.618;2023-01-10T16:48:51;10.50;;;3.78;;
39924;SDS011;25592;49.986;11.618;2023-01-10T16:51:38;11.68;;;4.28;;
39924;SDS011;25592;49.986;11.618;2023-01-10T16:54:23;17.73;;;3.70;;
39924;SDS011;25592;49.986;11.618;2023-01-10T16:57:09;12.93;;;3.65;;
39924;SDS011;25592;49.986;11.618;2023-01-10T16:59:56;10.38;;;3.45;;
39924;SDS011;25592;49.986;11.618;2023-01-10T17:02:41;7.38;;;2.47;;
39924;SDS011;25592;49.986;11.618;2023-01-10T17:05:27;7.60;;;3.58;;
39924;SDS011;25592;49.986;11.618;2023-01-10T17:08:17;12.05;;;3.90;;
39924;SDS011;25592;49.986;11.618;2023-01-10T17:11:05;11.27;;;4.38;;
39924;SDS011;25592;49.986;11.618;2023-01-10T17:13:55;12.75;;;3.78;;
39924;SDS011;25592;49.986;11.618;2023-01-10T17:16:41;13.38;;;4.95;;
39924;SDS011;25592;49.986;11.618;2023-01-10T17:19:26;13.57;;;5.78;;
39924;SDS011;25592;49.986;11.618;2023-01-10T17:22:12;11.90;;;4.95;;
39924;SDS011;25592;49.986;11.618;2023-01-10T17:24:58;14.70;;;4.53;;
39924;SDS011;25592;49.986;11.618;2023-01-10T17:27:43;14.40;;;6.30;;
39924;SDS011;25592;49.986;11.618;2023-01-10T17:30:29;14.50;;;6.05;;
39924;SDS011;25592;49.986;11.618;2023-01-10T17:33:14;18.70;;;6.60;;
39924;SDS011;25592;49.986;11.618;2023-01-10T17:35:59;12.40;;;4.25;;
39924;SDS011;25592;49.986;11.618;2023-01-10T17:38:45;11.60;;;3.42;;
39924;SDS011;25592;49.986;11.618;2023-01-10T17:41:30;7.38;;;3.60;;
39924;SDS011;25592;49.986;11.618;2023-01-10T17:44:16;9.55;;;4.57;;
39924;SDS011;25592;49.986;11.618;2023-01-10T17:47:01;11.43;;;4.20;;
39924;SDS011;25592;49.986;11.618;2023-01-10T17:49:47;14.35;;;4.85;;
39924;SDS011;25592;49.986;11.618;2023-01-10T17:52:32;9.18;;;3.33;;
39924;SDS011;25592;49.986;11.618;2023-01-10T17:55:17;8.45;;;3.50;;
39924;SDS011;25592;49.986;11.618;2023-01-10T17:58:03;10.88;;;2.95;;
39924;SDS011;25592;49.986;11.618;2023-01-10T18:00:48;9.13;;;3.08;;
39924;SDS011;25592;49.986;11.618;2023-01-10T18:03:34;11.35;;;3.83;;
39924;SDS011;25592;49.986;11.618;2023-01-10T18:06:19;24.55;;;3.35;;
39924;SDS011;25592;49.986;11.618;2023-01-10T18:09:09;14.82;;;4.75;;
39924;SDS011;25592;49.986;11.618;2023-01-10T18:11:54;17.77;;;4.55;;
39924;SDS011;25592;49.986;11.618;2023-01-10T18:14:39;13.07;;;4.57;;